Oakland, California
Current Conditions -  °F | °C
As of 7:53 PM on Friday 24 Oct 2014 (Local Time) from KOAK Reporting Station
Broken Clouds Broken Clouds  
Wind Chill: 65°   Ceiling: 20000
Heat Index: 65°   Visibility: 10mi
Dew Point: 55°   Wind: 16mph
Humidity: 70%   Direction: 220°SW
Pressure: 29.9"   Gusts: 24mph
Location:  37.81°N, 122.27°W
Report Text: KOAK 250253Z 22014G21KT 10SM FEW018 BKN200 18/13 A2990 RMK AO2 SLP123 T01830128 53002
Loading
Personal Weather Stations






























Interactive Weather Map
Tropical Storm Tracking
New forecast layout! Learn more

10-Day Weather Forecast

Advertisements
Track Severe Weather on mobile